createdAt,value
2022-10-22T00:01:15.704Z,19.88
2022-10-22T00:03:42.125Z,20.08
2022-10-22T00:06:08.552Z,21.17
2022-10-22T00:08:35.021Z,19.83
2022-10-22T00:11:08.926Z,23.63
2022-10-22T00:13:35.373Z,19.73
2022-10-22T00:16:01.776Z,18.25
2022-10-22T00:18:28.169Z,19.63
2022-10-22T00:20:54.545Z,18.52
2022-10-22T00:23:21.099Z,17.83
2022-10-22T00:25:47.613Z,20.00
2022-10-22T00:28:14.016Z,21.92
2022-10-22T00:30:40.475Z,20.77
2022-10-22T00:33:06.861Z,18.95
2022-10-22T00:35:33.354Z,21.73
2022-10-22T00:37:59.742Z,21.13
2022-10-22T00:40:26.141Z,22.92
2022-10-22T00:42:52.522Z,22.83
2022-10-22T00:45:21.421Z,20.30
2022-10-22T00:48:01.615Z,25.15
2022-10-22T00:50:34.062Z,19.77
2022-10-22T00:53:00.438Z,20.42
2022-10-22T00:55:27.070Z,18.63
2022-10-22T00:57:54.201Z,19.40
2022-10-22T01:00:21.141Z,20.65
2022-10-22T01:02:48.680Z,21.55
2022-10-22T01:05:15.205Z,20.85
2022-10-22T01:07:45.166Z,19.15
2022-10-22T01:10:26.384Z,17.73
2022-10-22T01:13:15.333Z,19.80
2022-10-22T01:15:57.453Z,16.00
2022-10-22T01:18:37.895Z,16.73
2022-10-22T01:21:22.388Z,21.30
2022-10-22T01:23:57.699Z,20.27
2022-10-22T01:26:57.269Z,19.38
2022-10-22T01:29:35.780Z,19.95
2022-10-22T01:32:05.379Z,15.48
2022-10-22T01:36:58.003Z,17.85
2022-10-22T01:39:24.384Z,18.55
2022-10-22T01:41:50.787Z,17.35
2022-10-22T01:47:32.345Z,16.75
2022-10-22T01:50:32.271Z,18.23
2022-10-22T01:53:17.675Z,19.05
2022-10-22T01:56:05.433Z,21.77
2022-10-22T01:58:34.827Z,15.35
2022-10-22T02:01:19.513Z,16.90
2022-10-22T02:04:32.357Z,19.00
2022-10-22T02:07:00.891Z,15.45
2022-10-22T02:09:27.994Z,19.27
2022-10-22T02:11:54.431Z,16.10
2022-10-22T02:14:21.107Z,13.95
2022-10-22T02:16:48.059Z,14.20
2022-10-22T02:19:37.911Z,13.32
2022-10-22T02:22:04.503Z,14.70
2022-10-22T02:24:30.991Z,14.65
2022-10-22T02:27:03.304Z,13.15
2022-10-22T02:29:50.321Z,15.13
2022-10-22T02:32:19.855Z,14.38
2022-10-22T02:34:46.247Z,15.45
2022-10-22T02:37:12.859Z,15.50
2022-10-22T02:39:39.283Z,13.23
2022-10-22T02:42:05.699Z,13.90
2022-10-22T02:44:32.124Z,13.80
2022-10-22T02:46:58.538Z,13.00
2022-10-22T02:49:24.938Z,13.52
2022-10-22T02:51:51.311Z,13.52
2022-10-22T02:54:17.687Z,13.82
2022-10-22T02:56:44.069Z,12.55
2022-10-22T02:59:10.466Z,16.25
2022-10-22T03:01:36.872Z,12.93
2022-10-22T03:04:03.408Z,11.88
2022-10-22T03:06:29.805Z,12.50
2022-10-22T03:08:56.238Z,12.10
2022-10-22T03:11:22.635Z,11.40
2022-10-22T03:13:49.007Z,11.57
2022-10-22T03:16:15.392Z,10.48
2022-10-22T03:18:41.768Z,10.98
2022-10-22T03:21:12.338Z,11.55
2022-10-22T03:23:39.846Z,15.88
2022-10-22T03:26:06.241Z,13.60
2022-10-22T03:28:33.075Z,18.10
2022-10-22T03:30:59.484Z,16.90
2022-10-22T03:33:25.863Z,13.05
2022-10-22T03:35:52.286Z,14.73
2022-10-22T03:38:18.660Z,14.88
2022-10-22T03:40:45.061Z,15.88
2022-10-22T03:43:11.443Z,17.25
2022-10-22T03:48:09.223Z,16.10
2022-10-22T03:50:35.638Z,20.40
2022-10-22T03:53:02.016Z,18.60
2022-10-22T03:55:28.442Z,19.15
2022-10-22T03:57:54.834Z,20.63
2022-10-22T04:00:21.290Z,18.58
2022-10-22T04:02:47.679Z,17.50
2022-10-22T04:07:45.389Z,19.88
2022-10-22T04:10:11.775Z,21.52
2022-10-22T04:12:38.217Z,19.02
2022-10-22T04:15:05.020Z,17.98
2022-10-22T04:17:37.837Z,17.80
2022-10-22T04:20:04.754Z,16.65
2022-10-22T04:22:33.688Z,17.58
2022-10-22T04:25:00.060Z,23.27
2022-10-22T04:27:30.011Z,22.60
2022-10-22T04:29:56.376Z,22.15
2022-10-22T04:32:22.763Z,23.90
2022-10-22T04:34:49.128Z,22.90
2022-10-22T04:37:15.524Z,23.85
2022-10-22T04:39:41.907Z,22.73
2022-10-22T04:42:08.304Z,20.08
2022-10-22T04:44:34.773Z,22.77
2022-10-22T04:47:01.237Z,25.33
2022-10-22T04:49:27.667Z,25.05
2022-10-22T04:51:54.077Z,24.77
2022-10-22T04:54:20.485Z,23.52
2022-10-22T04:56:46.880Z,26.38
2022-10-22T04:59:13.395Z,22.52
2022-10-22T05:01:42.978Z,25.35
2022-10-22T05:04:14.173Z,24.92
2022-10-22T05:06:40.587Z,22.85
2022-10-22T05:09:08.501Z,18.48
2022-10-22T05:11:36.064Z,26.65
2022-10-22T05:14:04.040Z,24.13
2022-10-22T05:16:30.589Z,28.10
2022-10-22T05:18:58.325Z,31.10
2022-10-22T05:21:24.726Z,27.30
2022-10-22T05:23:51.174Z,28.73
2022-10-22T05:26:19.156Z,31.58
2022-10-22T05:28:46.567Z,38.03
2022-10-22T05:31:13.452Z,26.60
2022-10-22T05:33:40.078Z,31.33
2022-10-22T05:36:07.612Z,21.90
2022-10-22T05:38:34.460Z,30.63
2022-10-22T05:41:08.773Z,22.17
2022-10-22T05:43:35.358Z,31.63
2022-10-22T05:46:03.030Z,19.30
2022-10-22T05:48:29.478Z,26.58
2022-10-22T05:50:55.873Z,26.50
2022-10-22T05:53:23.375Z,27.48
2022-10-22T05:55:49.762Z,20.52
2022-10-22T05:58:16.173Z,24.77
2022-10-22T06:00:42.578Z,20.60
2022-10-22T06:03:09.056Z,23.65
2022-10-22T06:05:36.331Z,20.88
2022-10-22T06:08:02.705Z,24.48
2022-10-22T06:10:29.085Z,20.88
2022-10-22T06:12:55.465Z,19.80
2022-10-22T06:15:21.855Z,19.33
2022-10-22T06:17:48.245Z,19.95
2022-10-22T06:20:14.724Z,19.60
2022-10-22T06:22:41.282Z,23.02
2022-10-22T06:25:08.129Z,20.30
2022-10-22T06:27:34.780Z,19.52
2022-10-22T06:30:01.180Z,20.92
2022-10-22T06:32:27.558Z,19.92
2022-10-22T06:34:53.958Z,20.95
2022-10-22T06:37:20.361Z,21.63
2022-10-22T06:39:46.804Z,23.10
2022-10-22T06:42:13.225Z,17.30
2022-10-22T06:44:39.970Z,19.23
2022-10-22T06:47:06.347Z,17.92
2022-10-22T06:49:32.785Z,24.33
2022-10-22T06:51:59.170Z,20.60
2022-10-22T06:54:25.619Z,17.23
2022-10-22T06:56:52.048Z,15.15
2022-10-22T06:59:18.494Z,15.80
2022-10-22T07:01:45.064Z,17.63
2022-10-22T07:04:11.610Z,17.13
2022-10-22T07:06:38.080Z,18.38
2022-10-22T07:09:04.573Z,21.17
2022-10-22T07:11:41.761Z,18.73
2022-10-22T07:14:08.449Z,20.23
2022-10-22T07:16:34.901Z,18.33
2022-10-22T07:19:01.954Z,16.98
2022-10-22T07:21:28.548Z,16.33
2022-10-22T07:23:54.949Z,16.13
2022-10-22T07:26:21.818Z,18.80
2022-10-22T07:28:48.322Z,16.15
2022-10-22T07:31:15.145Z,18.88
2022-10-22T07:33:41.540Z,20.23
2022-10-22T07:36:10.802Z,19.70
2022-10-22T07:38:37.179Z,22.35
2022-10-22T07:41:03.743Z,21.83
2022-10-22T07:43:30.171Z,21.90
2022-10-22T07:45:56.608Z,20.48
2022-10-22T07:48:23.425Z,19.80
2022-10-22T07:50:50.473Z,18.70
2022-10-22T07:53:16.982Z,20.85
2022-10-22T07:55:43.386Z,20.83
2022-10-22T07:58:09.761Z,20.08
2022-10-22T08:00:36.251Z,21.42
2022-10-22T08:03:05.457Z,21.40
2022-10-22T08:05:32.176Z,18.85
2022-10-22T08:07:58.838Z,18.70
2022-10-22T08:10:25.208Z,17.60
2022-10-22T08:12:51.599Z,17.38
2022-10-22T08:15:18.027Z,23.38
2022-10-22T08:17:44.575Z,17.40
2022-10-22T08:20:11.463Z,20.92
2022-10-22T08:22:37.860Z,17.63
2022-10-22T08:25:04.659Z,18.20
2022-10-22T08:27:31.062Z,17.35
2022-10-22T08:29:57.476Z,17.70
2022-10-22T08:32:24.026Z,16.70
2022-10-22T08:34:50.446Z,17.30
2022-10-22T08:37:16.867Z,19.33
2022-10-22T08:39:43.977Z,15.25
2022-10-22T08:42:37.248Z,18.77
2022-10-22T08:45:20.222Z,12.35
2022-10-22T08:48:02.691Z,14.27
2022-10-22T08:50:41.628Z,12.65
2022-10-22T08:53:12.924Z,14.68
2022-10-22T08:55:40.097Z,16.60
2022-10-22T08:58:09.437Z,15.50
2022-10-22T09:00:46.898Z,11.90
2022-10-22T09:03:37.752Z,12.88
2022-10-22T09:06:09.903Z,12.98
2022-10-22T09:08:36.902Z,15.20
2022-10-22T09:11:13.586Z,12.95
2022-10-22T09:13:40.862Z,13.05
2022-10-22T09:16:21.699Z,10.88
2022-10-22T09:19:13.213Z,12.15
2022-10-22T09:21:58.669Z,11.77
2022-10-22T09:24:34.211Z,14.48
2022-10-22T09:29:33.972Z,11.70
2022-10-22T09:32:00.520Z,12.25
2022-10-22T09:34:26.898Z,8.88
2022-10-22T09:37:00.911Z,11.98
2022-10-22T09:39:29.075Z,12.15
2022-10-22T09:41:55.477Z,11.50
2022-10-22T09:44:21.933Z,11.35
2022-10-22T09:46:48.361Z,14.60
2022-10-22T09:49:16.464Z,9.13
2022-10-22T09:51:57.010Z,10.95
2022-10-22T09:54:33.450Z,11.73
2022-10-22T09:57:24.068Z,7.95
2022-10-22T09:59:51.229Z,9.50
2022-10-22T10:02:37.510Z,9.40
2022-10-22T10:05:05.729Z,9.48
2022-10-22T10:07:32.668Z,8.80
2022-10-22T10:09:59.069Z,8.35
2022-10-22T10:12:43.439Z,9.75
2022-10-22T10:15:29.910Z,7.38
2022-10-22T10:18:33.140Z,7.13
2022-10-22T10:21:10.024Z,6.97
2022-10-22T10:23:45.781Z,6.07
2022-10-22T10:26:18.339Z,7.82
2022-10-22T10:28:47.722Z,8.60
2022-10-22T10:31:23.425Z,9.10
2022-10-22T10:33:52.716Z,6.07
2022-10-22T10:36:51.699Z,9.18
2022-10-22T10:39:33.457Z,4.90
2022-10-22T10:42:06.180Z,7.65
2022-10-22T10:44:37.159Z,4.90
2022-10-22T10:47:19.806Z,7.25
2022-10-22T10:49:46.679Z,5.55
2022-10-22T10:52:36.715Z,8.68
2022-10-22T10:55:42.001Z,3.28
2022-10-22T10:58:42.996Z,6.70
2022-10-22T11:01:16.066Z,7.93
2022-10-22T11:04:02.227Z,8.32
2022-10-22T11:06:28.659Z,5.50
2022-10-22T11:08:58.246Z,6.00
2022-10-22T11:11:40.993Z,9.05
2022-10-22T11:14:26.474Z,6.38
2022-10-22T11:17:01.376Z,5.03
2022-10-22T11:19:52.327Z,4.25
2022-10-22T11:22:29.439Z,6.07
2022-10-22T11:27:47.729Z,7.95
2022-10-22T11:30:22.629Z,5.22
2022-10-22T11:32:53.537Z,6.68
2022-10-22T11:35:25.856Z,6.30
2022-10-22T11:38:01.744Z,6.85
2022-10-22T11:40:38.440Z,8.77
2022-10-22T11:43:06.609Z,6.90
2022-10-22T11:45:41.002Z,5.60
2022-10-22T11:48:14.858Z,6.05
2022-10-22T11:50:41.127Z,7.85
2022-10-22T11:53:13.647Z,4.00
2022-10-22T11:55:39.948Z,4.13
2022-10-22T11:58:30.712Z,7.25
2022-10-22T12:00:58.762Z,5.57
2022-10-22T12:03:37.849Z,5.30
2022-10-22T12:06:09.909Z,4.90
2022-10-22T12:08:36.375Z,9.05
2022-10-22T12:11:12.610Z,4.90
2022-10-22T12:14:16.052Z,6.60
2022-10-22T12:16:58.121Z,6.00
2022-10-22T12:19:27.294Z,4.65
2022-10-22T12:21:57.545Z,7.32
2022-10-22T12:24:24.422Z,6.57
2022-10-22T12:26:50.808Z,6.60
2022-10-22T12:29:17.248Z,6.20
2022-10-22T12:31:44.447Z,6.13
2022-10-22T12:34:17.173Z,5.05
2022-10-22T12:36:43.935Z,6.55
2022-10-22T12:39:13.469Z,4.40
2022-10-22T12:44:06.318Z,6.43
2022-10-22T12:46:35.530Z,4.80
2022-10-22T12:49:03.488Z,5.80
2022-10-22T12:51:29.865Z,8.52
2022-10-22T12:53:59.918Z,4.40
2022-10-22T12:56:31.571Z,5.70
2022-10-22T12:59:00.267Z,5.03
2022-10-22T13:01:34.061Z,5.53
2022-10-22T13:04:17.140Z,4.88
2022-10-22T13:06:44.523Z,5.47
2022-10-22T13:09:25.155Z,5.75
2022-10-22T13:12:02.728Z,4.35
2022-10-22T13:14:32.453Z,7.10
2022-10-22T13:17:18.106Z,4.68
2022-10-22T13:19:53.519Z,7.55
2022-10-22T13:22:35.737Z,7.70
2022-10-22T13:25:18.150Z,5.57
2022-10-22T13:27:48.150Z,5.40
2022-10-22T13:30:25.684Z,5.07
2022-10-22T13:32:56.566Z,4.30
2022-10-22T13:35:27.766Z,5.95
2022-10-22T13:37:54.290Z,2.75
2022-10-22T13:40:20.925Z,6.85
2022-10-22T13:42:47.398Z,4.10
2022-10-22T13:45:13.842Z,4.32
2022-10-22T13:47:40.295Z,6.63
2022-10-22T13:50:12.836Z,4.88
2022-10-22T13:52:41.541Z,5.97
2022-10-22T13:55:17.235Z,6.93
2022-10-22T13:57:43.747Z,4.85
2022-10-22T14:00:17.997Z,8.27
2022-10-22T14:02:48.026Z,2.97
2022-10-22T14:05:15.359Z,6.20
2022-10-22T14:07:42.015Z,4.43
2022-10-22T14:10:23.928Z,5.63
2022-10-22T14:12:53.390Z,6.55
2022-10-22T14:15:23.483Z,11.60
2022-10-22T14:17:53.989Z,4.13
2022-10-22T14:20:21.719Z,4.97
2022-10-22T14:22:48.819Z,3.22
2022-10-22T14:25:25.278Z,4.72
2022-10-22T14:27:54.669Z,4.88
2022-10-22T14:30:24.703Z,6.32
2022-10-22T14:32:51.157Z,6.35
2022-10-22T14:35:19.712Z,3.47
2022-10-22T14:37:46.289Z,4.30
2022-10-22T14:40:14.061Z,4.30
2022-10-22T14:42:41.943Z,4.35
2022-10-22T14:45:22.526Z,3.95
2022-10-22T14:47:49.661Z,6.25
2022-10-22T14:50:16.511Z,4.75
2022-10-22T14:52:44.239Z,4.95
2022-10-22T14:55:15.093Z,7.00
2022-10-22T14:57:41.849Z,7.45
2022-10-22T15:00:17.703Z,5.85
2022-10-22T15:02:45.593Z,4.35
2022-10-22T15:05:12.046Z,6.10
2022-10-22T15:07:41.183Z,5.00
2022-10-22T15:10:08.382Z,5.05
2022-10-22T15:12:34.824Z,8.00
2022-10-22T15:15:01.262Z,4.22
2022-10-22T15:17:27.649Z,4.38
2022-10-22T15:19:54.043Z,4.70
2022-10-22T15:22:20.438Z,6.93
2022-10-22T15:24:46.961Z,5.55
2022-10-22T15:27:13.527Z,4.38
2022-10-22T15:29:40.498Z,4.72
2022-10-22T15:32:06.907Z,5.97
2022-10-22T15:34:34.446Z,5.68
2022-10-22T15:37:04.531Z,5.63
2022-10-22T15:39:31.013Z,6.88
2022-10-22T15:41:58.716Z,3.10
2022-10-22T15:44:26.727Z,3.80
2022-10-22T15:46:53.275Z,3.45
2022-10-22T15:49:19.671Z,3.65
2022-10-22T15:51:46.131Z,4.93
2022-10-22T15:54:20.767Z,3.78
2022-10-22T15:56:47.201Z,5.40
2022-10-22T15:59:14.573Z,5.18
2022-10-22T16:01:41.031Z,3.65
2022-10-22T16:04:07.527Z,4.57
2022-10-22T16:06:35.504Z,4.82
2022-10-22T16:09:03.424Z,4.32
2022-10-22T16:11:30.577Z,5.20
2022-10-22T16:13:57.455Z,6.47
2022-10-22T16:16:24.573Z,5.80
2022-10-22T16:18:51.210Z,3.78
2022-10-22T16:21:17.841Z,5.75
2022-10-22T16:23:44.449Z,3.97
2022-10-22T16:26:11.150Z,6.68
2022-10-22T16:28:37.542Z,7.45
2022-10-22T16:31:06.092Z,5.13
2022-10-22T16:33:41.217Z,4.80
2022-10-22T16:36:11.686Z,5.53
2022-10-22T16:38:38.298Z,4.82
2022-10-22T16:41:11.684Z,7.22
2022-10-22T16:43:39.937Z,5.85
2022-10-22T16:46:06.712Z,6.85
2022-10-22T16:48:33.373Z,8.65
2022-10-22T16:51:00.099Z,5.40
2022-10-22T16:53:31.274Z,8.20
2022-10-22T16:55:57.779Z,8.15
2022-10-22T16:58:24.166Z,7.75
2022-10-22T17:00:50.569Z,6.75
2022-10-22T17:03:17.001Z,7.07
2022-10-22T17:05:43.389Z,6.72
2022-10-22T17:08:09.787Z,8.32
2022-10-22T17:10:36.534Z,15.73
2022-10-22T17:13:03.846Z,9.20
2022-10-22T17:15:30.508Z,11.15
2022-10-22T17:17:58.959Z,12.50
2022-10-22T17:20:25.315Z,15.82
2022-10-22T17:22:51.719Z,13.07
2022-10-22T17:25:25.375Z,10.50
2022-10-22T17:27:51.919Z,11.27
2022-10-22T17:30:22.033Z,8.77
2022-10-22T17:32:51.456Z,6.88
2022-10-22T17:35:18.008Z,6.53
2022-10-22T17:37:44.595Z,8.13
2022-10-22T17:40:11.263Z,9.57
2022-10-22T17:42:37.665Z,7.45
2022-10-22T17:45:04.369Z,9.40
2022-10-22T17:47:30.788Z,6.43
2022-10-22T17:49:57.218Z,5.75
2022-10-22T17:52:23.645Z,6.57
2022-10-22T17:54:50.043Z,7.85
2022-10-22T17:57:16.454Z,7.00
2022-10-22T17:59:42.856Z,10.77
2022-10-22T18:02:16.629Z,7.93
2022-10-22T18:04:43.005Z,9.00
2022-10-22T18:07:09.418Z,7.15
2022-10-22T18:09:35.823Z,7.45
2022-10-22T18:12:02.222Z,6.60
2022-10-22T18:14:28.650Z,10.35
2022-10-22T18:16:55.036Z,10.68
2022-10-22T18:19:21.877Z,10.30
2022-10-22T18:21:48.276Z,8.82
2022-10-22T18:24:14.948Z,8.23
2022-10-22T18:26:41.758Z,9.75
2022-10-22T18:29:09.025Z,8.45
2022-10-22T18:31:36.662Z,8.52
2022-10-22T18:34:03.071Z,11.15
2022-10-22T18:36:29.460Z,8.27
2022-10-22T18:38:59.832Z,9.85
2022-10-22T18:41:26.503Z,7.07
2022-10-22T18:43:53.733Z,8.82
2022-10-22T18:46:20.245Z,8.45
2022-10-22T18:48:46.731Z,6.70
2022-10-22T18:51:13.822Z,7.90
2022-10-22T18:53:40.307Z,12.07
2022-10-22T18:56:08.278Z,8.23
2022-10-22T18:58:41.408Z,8.90
2022-10-22T19:01:09.337Z,9.02
2022-10-22T19:03:35.783Z,9.38
2022-10-22T19:06:02.189Z,10.75
2022-10-22T19:08:28.565Z,11.50
2022-10-22T19:10:55.055Z,9.13
2022-10-22T19:13:21.516Z,9.95
2022-10-22T19:15:48.171Z,8.80
2022-10-22T19:18:14.550Z,9.52
2022-10-22T19:20:41.157Z,7.80
2022-10-22T19:23:07.552Z,10.98
2022-10-22T19:25:34.604Z,9.52
2022-10-22T19:28:00.977Z,8.20
2022-10-22T19:30:27.385Z,7.80
2022-10-22T19:32:53.763Z,11.15
2022-10-22T19:35:20.163Z,7.47
2022-10-22T19:37:48.362Z,12.13
2022-10-22T19:40:15.150Z,9.20
2022-10-22T19:42:41.872Z,12.68
2022-10-22T19:45:08.923Z,8.13
2022-10-22T19:47:35.291Z,9.23
2022-10-22T19:50:01.671Z,8.57
2022-10-22T19:52:30.838Z,7.15
2022-10-22T19:54:57.233Z,8.38
2022-10-22T19:57:23.648Z,8.63
2022-10-22T19:59:50.048Z,11.27
2022-10-22T20:02:17.184Z,7.80
2022-10-22T20:04:47.925Z,10.77
2022-10-22T20:07:16.433Z,8.52
2022-10-22T20:09:42.830Z,7.63
2022-10-22T20:12:09.229Z,8.70
2022-10-22T20:14:35.594Z,10.60
2022-10-22T20:17:02.003Z,8.80
2022-10-22T20:19:28.384Z,9.38
2022-10-22T20:21:54.832Z,12.15
2022-10-22T20:24:21.295Z,11.30
2022-10-22T20:26:47.752Z,9.20
2022-10-22T20:29:14.267Z,12.10
2022-10-22T20:31:41.069Z,6.63
2022-10-22T20:34:07.452Z,6.72
2022-10-22T20:36:33.842Z,9.95
2022-10-22T20:39:01.956Z,9.27
2022-10-22T20:41:28.382Z,7.25
2022-10-22T20:43:55.017Z,7.45
2022-10-22T20:46:23.403Z,6.63
2022-10-22T20:49:04.403Z,8.45
2022-10-22T20:51:30.898Z,6.40
2022-10-22T20:53:57.381Z,9.77
2022-10-22T20:56:23.905Z,6.85
2022-10-22T20:58:50.489Z,7.30
2022-10-22T21:01:20.237Z,7.82
2022-10-22T21:03:51.401Z,9.35
2022-10-22T21:06:18.706Z,7.50
2022-10-22T21:08:45.171Z,10.07
2022-10-22T21:11:11.579Z,7.25
2022-10-22T21:13:38.077Z,12.25
2022-10-22T21:16:09.352Z,10.00
2022-10-22T21:18:35.974Z,7.75
2022-10-22T21:21:04.343Z,14.27
2022-10-22T21:23:31.351Z,9.57
2022-10-22T21:25:57.821Z,11.45
2022-10-22T21:28:24.457Z,6.57
2022-10-22T21:30:52.949Z,9.85
2022-10-22T21:33:19.702Z,7.82
2022-10-22T21:35:55.466Z,9.23
2022-10-22T21:38:23.644Z,7.38
2022-10-22T21:40:50.096Z,7.38
2022-10-22T21:43:17.714Z,9.75
2022-10-22T21:45:44.121Z,7.53
2022-10-22T21:48:12.157Z,7.88
2022-10-22T21:50:39.810Z,8.70
2022-10-22T21:53:06.638Z,9.00
2022-10-22T21:55:37.407Z,8.02
2022-10-22T21:58:05.144Z,7.50
2022-10-22T22:00:31.510Z,9.98
2022-10-22T22:02:57.909Z,11.25
2022-10-22T22:05:24.345Z,11.25
2022-10-22T22:07:50.788Z,8.82
2022-10-22T22:10:17.325Z,10.82
2022-10-22T22:12:44.022Z,9.07
2022-10-22T22:15:11.044Z,12.63
2022-10-22T22:17:37.454Z,9.52
2022-10-22T22:20:04.153Z,10.18
2022-10-22T22:22:30.515Z,10.43
2022-10-22T22:24:56.951Z,6.95
2022-10-22T22:27:23.326Z,9.30
2022-10-22T22:29:49.726Z,8.70
2022-10-22T22:32:16.109Z,11.88
2022-10-22T22:34:42.514Z,10.00
2022-10-22T22:37:10.267Z,9.10
2022-10-22T22:39:37.737Z,9.02
2022-10-22T22:42:04.181Z,10.15
2022-10-22T22:44:30.572Z,9.43
2022-10-22T22:46:56.967Z,11.40
2022-10-22T22:49:23.359Z,7.57
2022-10-22T22:51:49.727Z,11.05
2022-10-22T22:54:16.109Z,9.32
2022-10-22T22:56:42.547Z,9.73
2022-10-22T22:59:10.106Z,12.13
2022-10-22T23:01:37.631Z,8.82
2022-10-22T23:04:10.700Z,10.57
2022-10-22T23:06:37.146Z,9.35
2022-10-22T23:09:05.404Z,10.00
2022-10-22T23:11:32.300Z,9.05
2022-10-22T23:13:59.989Z,8.02
2022-10-22T23:16:28.582Z,11.50
2022-10-22T23:18:55.085Z,9.52
2022-10-22T23:21:24.162Z,11.93
2022-10-22T23:23:53.335Z,9.93
2022-10-22T23:26:22.078Z,10.32
2022-10-22T23:28:48.524Z,10.45
2022-10-22T23:31:17.580Z,11.57
2022-10-22T23:33:44.130Z,9.02
2022-10-22T23:36:10.570Z,10.75
2022-10-22T23:38:37.596Z,10.77
2022-10-22T23:41:04.355Z,13.57
2022-10-22T23:43:30.837Z,11.88
2022-10-22T23:45:57.285Z,12.27
2022-10-22T23:48:23.809Z,13.48
2022-10-22T23:50:50.313Z,10.23
2022-10-22T23:53:16.769Z,14.13
2022-10-22T23:55:43.462Z,11.05
2022-10-22T23:58:10.683Z,12.90
